sensor_id;sensor_type;location;lat;lon;timestamp;temperature;humidity
43627;DHT22;29217;52.586;13.442;2023-06-10T11:10:52;19.00;99.90
43627;DHT22;29217;52.586;13.442;2023-06-10T11:13:21;19.10;99.90
43627;DHT22;29217;52.586;13.442;2023-06-10T11:15:48;19.30;99.90
43627;DHT22;29217;52.586;13.442;2023-06-10T11:18:49;19.60;99.90
43627;DHT22;29217;52.586;13.442;2023-06-10T11:21:16;19.90;99.90
43627;DHT22;29217;52.586;13.442;2023-06-10T11:23:42;19.90;99.90
43627;DHT22;29217;52.586;13.442;2023-06-10T11:31:33;20.60;99.90
43627;DHT22;29217;52.586;13.442;2023-06-10T11:34:03;21.00;99.90
43627;DHT22;29217;52.586;13.442;2023-06-10T11:36:31;21.30;99.90
43627;DHT22;29217;52.586;13.442;2023-06-10T11:38:58;21.40;99.90
43627;DHT22;29217;52.586;13.442;2023-06-10T11:41:25;21.60;99.90
43627;DHT22;29217;52.586;13.442;2023-06-10T11:43:55;22.00;99.90
43627;DHT22;29217;52.586;13.442;2023-06-10T11:46:23;22.40;99.90
43627;DHT22;29217;52.586;13.442;2023-06-10T11:48:57;22.80;99.90
43627;DHT22;29217;52.586;13.442;2023-06-10T11:51:33;23.00;99.90
43627;DHT22;29217;52.586;13.442;2023-06-10T11:53:58;23.00;99.90
43627;DHT22;29217;52.586;13.442;2023-06-10T11:56:27;23.30;99.90
43627;DHT22;29217;52.586;13.442;2023-06-10T11:58:58;23.50;99.90
43627;DHT22;29217;52.586;13.442;2023-06-10T12:01:27;23.80;99.90
43627;DHT22;29217;52.586;13.442;2023-06-10T12:04:07;24.10;99.90
43627;DHT22;29217;52.586;13.442;2023-06-10T12:06:47;24.20;99.90
43627;DHT22;29217;52.586;13.442;2023-06-10T12:09:19;24.50;99.90
43627;DHT22;29217;52.586;13.442;2023-06-10T12:11:49;24.90;99.90
43627;DHT22;29217;52.586;13.442;2023-06-10T12:14:15;25.10;99.90
43627;DHT22;29217;52.586;13.442;2023-06-10T12:16:48;25.30;99.90
43627;DHT22;29217;52.586;13.442;2023-06-10T12:19:14;25.40;99.90
43627;DHT22;29217;52.586;13.442;2023-06-10T12:21:39;25.20;99.90
43627;DHT22;29217;52.586;13.442;2023-06-10T12:24:09;25.30;99.90
43627;DHT22;29217;52.586;13.442;2023-06-10T12:26:40;25.30;99.90
43627;DHT22;29217;52.586;13.442;2023-06-10T12:29:19;25.50;99.90
43627;DHT22;29217;52.586;13.442;2023-06-10T12:32:06;25.70;99.90
43627;DHT22;29217;52.586;13.442;2023-06-10T12:34:36;25.80;99.90
43627;DHT22;29217;52.586;13.442;2023-06-10T12:37:05;25.90;99.90
43627;DHT22;29217;52.586;13.442;2023-06-10T12:39:32;25.90;99.90
43627;DHT22;29217;52.586;13.442;2023-06-10T12:41:59;26.10;99.90
43627;DHT22;29217;52.586;13.442;2023-06-10T12:44:35;26.10;99.90
43627;DHT22;29217;52.586;13.442;2023-06-10T12:47:07;26.10;99.90
43627;DHT22;29217;52.586;13.442;2023-06-10T12:49:33;26.10;99.90
43627;DHT22;29217;52.586;13.442;2023-06-10T12:52:00;26.30;99.90
43627;DHT22;29217;52.586;13.442;2023-06-10T12:54:26;26.60;99.90
43627;DHT22;29217;52.586;13.442;2023-06-10T12:56:52;26.70;99.90
43627;DHT22;29217;52.586;13.442;2023-06-10T12:59:18;27.00;99.90
43627;DHT22;29217;52.586;13.442;2023-06-10T13:01:49;27.20;99.90
43627;DHT22;29217;52.586;13.442;2023-06-10T13:04:16;27.30;99.90
43627;DHT22;29217;52.586;13.442;2023-06-10T13:06:41;27.30;99.90
43627;DHT22;29217;52.586;13.442;2023-06-10T13:09:07;27.40;99.90
43627;DHT22;29217;52.586;13.442;2023-06-10T13:11:32;27.50;99.90
43627;DHT22;29217;52.586;13.442;2023-06-10T13:13:58;27.60;99.90
43627;DHT22;29217;52.586;13.442;2023-06-10T13:16:24;27.60;99.90
43627;DHT22;29217;52.586;13.442;2023-06-10T13:18:52;27.60;99.90
43627;DHT22;29217;52.586;13.442;2023-06-10T13:21:17;27.70;99.90
43627;DHT22;29217;52.586;13.442;2023-06-10T13:23:46;27.90;99.90
43627;DHT22;29217;52.586;13.442;2023-06-10T13:26:14;28.00;99.90
43627;DHT22;29217;52.586;13.442;2023-06-10T13:28:39;28.00;99.90
43627;DHT22;29217;52.586;13.442;2023-06-10T13:31:05;28.20;99.90
43627;DHT22;29217;52.586;13.442;2023-06-10T13:33:31;28.30;99.90
43627;DHT22;29217;52.586;13.442;2023-06-10T13:35:56;28.30;99.90
43627;DHT22;29217;52.586;13.442;2023-06-10T13:38:22;28.30;99.90
43627;DHT22;29217;52.586;13.442;2023-06-10T13:40:48;28.30;99.90
43627;DHT22;29217;52.586;13.442;2023-06-10T13:43:13;28.40;99.90
43627;DHT22;29217;52.586;13.442;2023-06-10T13:45:39;28.30;99.90
43627;DHT22;29217;52.586;13.442;2023-06-10T13:48:05;28.30;99.90
43627;DHT22;29217;52.586;13.442;2023-06-10T13:50:31;28.40;99.90
43627;DHT22;29217;52.586;13.442;2023-06-10T13:52:57;28.50;99.90
43627;DHT22;29217;52.586;13.442;2023-06-10T13:55:22;28.70;99.90
43627;DHT22;29217;52.586;13.442;2023-06-10T13:57:50;28.70;99.90
43627;DHT22;29217;52.586;13.442;2023-06-10T14:00:16;28.70;99.90
43627;DHT22;29217;52.586;13.442;2023-06-10T14:02:41;28.90;99.90
43627;DHT22;29217;52.586;13.442;2023-06-10T14:05:07;28.90;99.90
43627;DHT22;29217;52.586;13.442;2023-06-10T14:07:34;29.00;99.90
43627;DHT22;29217;52.586;13.442;2023-06-10T14:09:59;29.10;99.90
43627;DHT22;29217;52.586;13.442;2023-06-10T14:12:25;29.10;99.90
43627;DHT22;29217;52.586;13.442;2023-06-10T14:14:51;29.20;99.90
43627;DHT22;29217;52.586;13.442;2023-06-10T14:17:16;29.30;99.90
43627;DHT22;29217;52.586;13.442;2023-06-10T14:19:42;29.40;99.90
43627;DHT22;29217;52.586;13.442;2023-06-10T14:22:07;29.30;99.90
43627;DHT22;29217;52.586;13.442;2023-06-10T14:24:34;29.40;99.90
43627;DHT22;29217;52.586;13.442;2023-06-10T14:27:00;29.50;99.90
43627;DHT22;29217;52.586;13.442;2023-06-10T14:29:26;29.60;99.90
43627;DHT22;29217;52.586;13.442;2023-06-10T14:31:57;29.60;99.90
43627;DHT22;29217;52.586;13.442;2023-06-10T14:34:22;29.60;99.90
43627;DHT22;29217;52.586;13.442;2023-06-10T14:36:54;29.50;99.90
43627;DHT22;29217;52.586;13.442;2023-06-10T14:39:19;29.20;99.90
43627;DHT22;29217;52.586;13.442;2023-06-10T14:41:45;29.00;99.90
43627;DHT22;29217;52.586;13.442;2023-06-10T14:44:10;28.90;99.90
43627;DHT22;29217;52.586;13.442;2023-06-10T14:46:36;28.90;99.90
43627;DHT22;29217;52.586;13.442;2023-06-10T14:49:01;28.80;99.90
43627;DHT22;29217;52.586;13.442;2023-06-10T14:51:28;28.70;99.90
43627;DHT22;29217;52.586;13.442;2023-06-10T14:53:53;28.70;99.90
43627;DHT22;29217;52.586;13.442;2023-06-10T14:56:19;28.60;99.90
43627;DHT22;29217;52.586;13.442;2023-06-10T14:58:44;28.40;99.90
43627;DHT22;29217;52.586;13.442;2023-06-10T15:01:10;28.30;99.90
43627;DHT22;29217;52.586;13.442;2023-06-10T15:03:36;28.10;99.90
43627;DHT22;29217;52.586;13.442;2023-06-10T15:06:01;28.10;99.90
43627;DHT22;29217;52.586;13.442;2023-06-10T15:08:27;28.00;99.90
43627;DHT22;29217;52.586;13.442;2023-06-10T15:10:55;28.00;99.90
43627;DHT22;29217;52.586;13.442;2023-06-10T15:13:22;27.90;99.90
43627;DHT22;29217;52.586;13.442;2023-06-10T15:15:48;27.80;99.90
43627;DHT22;29217;52.586;13.442;2023-06-10T15:18:14;27.80;99.90
43627;DHT22;29217;52.586;13.442;2023-06-10T15:20:39;27.70;99.90
43627;DHT22;29217;52.586;13.442;2023-06-10T15:23:05;27.60;99.90
43627;DHT22;29217;52.586;13.442;2023-06-10T15:25:33;27.50;99.90
43627;DHT22;29217;52.586;13.442;2023-06-10T15:27:58;27.40;99.90
43627;DHT22;29217;52.586;13.442;2023-06-10T15:30:24;27.30;99.90
43627;DHT22;29217;52.586;13.442;2023-06-10T15:32:50;27.10;99.90
43627;DHT22;29217;52.586;13.442;2023-06-10T15:35:15;27.00;99.90
43627;DHT22;29217;52.586;13.442;2023-06-10T15:37:41;26.90;99.90
43627;DHT22;29217;52.586;13.442;2023-06-10T15:40:07;26.80;99.90
43627;DHT22;29217;52.586;13.442;2023-06-10T15:42:32;26.70;99.90
43627;DHT22;29217;52.586;13.442;2023-06-10T15:44:58;26.70;99.90
43627;DHT22;29217;52.586;13.442;2023-06-10T15:47:23;26.70;99.90
43627;DHT22;29217;52.586;13.442;2023-06-10T15:49:49;26.70;99.90
43627;DHT22;29217;52.586;13.442;2023-06-10T15:52:15;26.70;99.90
43627;DHT22;29217;52.586;13.442;2023-06-10T15:54:41;26.70;99.90
43627;DHT22;29217;52.586;13.442;2023-06-10T15:57:06;26.60;99.90
43627;DHT22;29217;52.586;13.442;2023-06-10T15:59:33;26.50;99.90
43627;DHT22;29217;52.586;13.442;2023-06-10T16:01:59;26.40;99.90
43627;DHT22;29217;52.586;13.442;2023-06-10T16:04:25;26.30;99.90
43627;DHT22;29217;52.586;13.442;2023-06-10T16:06:50;26.20;99.90
43627;DHT22;29217;52.586;13.442;2023-06-10T16:09:16;26.20;99.90
43627;DHT22;29217;52.586;13.442;2023-06-10T16:11:42;26.20;99.90
43627;DHT22;29217;52.586;13.442;2023-06-10T16:14:07;26.20;99.90
43627;DHT22;29217;52.586;13.442;2023-06-10T16:16:33;26.20;99.90
43627;DHT22;29217;52.586;13.442;2023-06-10T16:18:58;26.10;99.90
43627;DHT22;29217;52.586;13.442;2023-06-10T16:21:25;26.10;99.90
43627;DHT22;29217;52.586;13.442;2023-06-10T16:23:51;26.10;99.90
43627;DHT22;29217;52.586;13.442;2023-06-10T16:26:16;26.20;99.90
43627;DHT22;29217;52.586;13.442;2023-06-10T16:28:42;26.20;99.90
43627;DHT22;29217;52.586;13.442;2023-06-10T16:31:07;26.20;99.90
43627;DHT22;29217;52.586;13.442;2023-06-10T16:33:34;26.30;99.90
43627;DHT22;29217;52.586;13.442;2023-06-10T16:35:59;26.30;99.90
43627;DHT22;29217;52.586;13.442;2023-06-10T16:38:25;26.40;99.90
43627;DHT22;29217;52.586;13.442;2023-06-10T16:40:51;26.30;99.90
43627;DHT22;29217;52.586;13.442;2023-06-10T16:43:16;26.30;99.90
43627;DHT22;29217;52.586;13.442;2023-06-10T16:45:42;26.30;99.90
43627;DHT22;29217;52.586;13.442;2023-06-10T16:48:07;26.30;99.90
43627;DHT22;29217;52.586;13.442;2023-06-10T16:50:33;26.30;99.90
43627;DHT22;29217;52.586;13.442;2023-06-10T16:52:58;26.30;99.90
43627;DHT22;29217;52.586;13.442;2023-06-10T16:55:24;26.30;99.90
43627;DHT22;29217;52.586;13.442;2023-06-10T16:57:50;26.40;99.90
43627;DHT22;29217;52.586;13.442;2023-06-10T17:00:16;26.40;99.90
43627;DHT22;29217;52.586;13.442;2023-06-10T17:02:42;26.40;99.90
43627;DHT22;29217;52.586;13.442;2023-06-10T17:05:08;26.40;99.90
43627;DHT22;29217;52.586;13.442;2023-06-10T17:07:33;26.40;99.90
43627;DHT22;29217;52.586;13.442;2023-06-10T17:09:59;26.40;99.90
43627;DHT22;29217;52.586;13.442;2023-06-10T17:12:25;26.40;99.90
43627;DHT22;29217;52.586;13.442;2023-06-10T17:14:51;26.30;99.90
43627;DHT22;29217;52.586;13.442;2023-06-10T17:17:16;26.30;99.90
43627;DHT22;29217;52.586;13.442;2023-06-10T17:19:42;26.30;99.90
43627;DHT22;29217;52.586;13.442;2023-06-10T17:22:08;26.30;99.90
43627;DHT22;29217;52.586;13.442;2023-06-10T17:24:33;26.20;99.90
43627;DHT22;29217;52.586;13.442;2023-06-10T17:26:59;26.20;99.90
43627;DHT22;29217;52.586;13.442;2023-06-10T17:29:25;26.20;99.90
43627;DHT22;29217;52.586;13.442;2023-06-10T17:31:50;26.20;99.90
43627;DHT22;29217;52.586;13.442;2023-06-10T17:34:17;26.10;99.90
43627;DHT22;29217;52.586;13.442;2023-06-10T17:36:43;26.10;99.90
43627;DHT22;29217;52.586;13.442;2023-06-10T17:39:09;26.00;99.90
43627;DHT22;29217;52.586;13.442;2023-06-10T17:41:34;26.00;99.90
43627;DHT22;29217;52.586;13.442;2023-06-10T17:44:00;26.00;99.90
43627;DHT22;29217;52.586;13.442;2023-06-10T17:46:26;25.90;99.90
43627;DHT22;29217;52.586;13.442;2023-06-10T17:48:51;25.90;99.90
43627;DHT22;29217;52.586;13.442;2023-06-10T17:51:17;25.80;99.90
43627;DHT22;29217;52.586;13.442;2023-06-10T17:53:42;25.70;99.90
43627;DHT22;29217;52.586;13.442;2023-06-10T17:56:08;25.70;99.90
43627;DHT22;29217;52.586;13.442;2023-06-10T17:58:33;25.60;99.90
43627;DHT22;29217;52.586;13.442;2023-06-10T18:00:59;25.60;99.90
43627;DHT22;29217;52.586;13.442;2023-06-10T18:03:25;25.50;99.90
43627;DHT22;29217;52.586;13.442;2023-06-10T18:05:54;25.40;99.90
43627;DHT22;29217;52.586;13.442;2023-06-10T18:08:20;25.30;99.90
43627;DHT22;29217;52.586;13.442;2023-06-10T18:10:46;25.20;99.90
43627;DHT22;29217;52.586;13.442;2023-06-10T18:13:12;25.10;99.90
43627;DHT22;29217;52.586;13.442;2023-06-10T18:15:37;25.00;99.90
43627;DHT22;29217;52.586;13.442;2023-06-10T18:18:03;24.90;99.90
43627;DHT22;29217;52.586;13.442;2023-06-10T18:20:29;24.90;99.90
43627;DHT22;29217;52.586;13.442;2023-06-10T18:22:54;24.80;99.90
43627;DHT22;29217;52.586;13.442;2023-06-10T18:25:20;24.80;99.90
43627;DHT22;29217;52.586;13.442;2023-06-10T18:27:46;24.80;99.90
43627;DHT22;29217;52.586;13.442;2023-06-10T18:30:11;24.80;99.90
43627;DHT22;29217;52.586;13.442;2023-06-10T18:32:37;24.80;99.90
43627;DHT22;29217;52.586;13.442;2023-06-10T18:35:03;24.70;99.90
43627;DHT22;29217;52.586;13.442;2023-06-10T18:37:29;24.70;99.90
43627;DHT22;29217;52.586;13.442;2023-06-10T18:39:54;24.60;99.90
43627;DHT22;29217;52.586;13.442;2023-06-10T18:42:20;24.60;99.90
43627;DHT22;29217;52.586;13.442;2023-06-10T18:44:46;24.50;99.90
43627;DHT22;29217;52.586;13.442;2023-06-10T18:47:11;24.40;99.90
43627;DHT22;29217;52.586;13.442;2023-06-10T18:49:37;24.40;99.90
43627;DHT22;29217;52.586;13.442;2023-06-10T18:52:04;24.40;99.90
43627;DHT22;29217;52.586;13.442;2023-06-10T18:54:30;24.30;99.90
43627;DHT22;29217;52.586;13.442;2023-06-10T18:56:55;24.30;99.90
43627;DHT22;29217;52.586;13.442;2023-06-10T18:59:23;24.30;99.90
43627;DHT22;29217;52.586;13.442;2023-06-10T19:01:49;24.30;99.90
43627;DHT22;29217;52.586;13.442;2023-06-10T19:04:15;24.20;99.90
43627;DHT22;29217;52.586;13.442;2023-06-10T19:06:41;24.10;99.90
43627;DHT22;29217;52.586;13.442;2023-06-10T19:09:07;24.00;99.90
43627;DHT22;29217;52.586;13.442;2023-06-10T19:11:33;23.90;99.90
43627;DHT22;29217;52.586;13.442;2023-06-10T19:13:59;23.90;99.90
43627;DHT22;29217;52.586;13.442;2023-06-10T19:16:24;23.70;99.90
43627;DHT22;29217;52.586;13.442;2023-06-10T19:18:51;23.70;99.90
43627;DHT22;29217;52.586;13.442;2023-06-10T19:21:17;23.60;99.90
43627;DHT22;29217;52.586;13.442;2023-06-10T19:23:43;23.60;99.90
43627;DHT22;29217;52.586;13.442;2023-06-10T19:26:08;23.50;99.90
43627;DHT22;29217;52.586;13.442;2023-06-10T19:28:34;23.40;99.90
43627;DHT22;29217;52.586;13.442;2023-06-10T19:31:00;23.40;99.90
43627;DHT22;29217;52.586;13.442;2023-06-10T19:33:26;23.30;99.90
43627;DHT22;29217;52.586;13.442;2023-06-10T19:35:52;23.30;99.90
43627;DHT22;29217;52.586;13.442;2023-06-10T19:38:18;23.20;99.90
43627;DHT22;29217;52.586;13.442;2023-06-10T19:40:44;23.20;99.90
43627;DHT22;29217;52.586;13.442;2023-06-10T19:43:09;23.00;99.90
43627;DHT22;29217;52.586;13.442;2023-06-10T19:45:35;23.00;99.90
43627;DHT22;29217;52.586;13.442;2023-06-10T19:48:01;23.00;99.90
43627;DHT22;29217;52.586;13.442;2023-06-10T19:50:26;23.00;99.90
43627;DHT22;29217;52.586;13.442;2023-06-10T19:52:52;22.90;99.90
43627;DHT22;29217;52.586;13.442;2023-06-10T19:55:18;22.90;99.90
43627;DHT22;29217;52.586;13.442;2023-06-10T19:57:43;22.90;99.90
43627;DHT22;29217;52.586;13.442;2023-06-10T20:00:09;22.80;99.90
43627;DHT22;29217;52.586;13.442;2023-06-10T20:02:35;22.70;99.90
43627;DHT22;29217;52.586;13.442;2023-06-10T20:05:01;22.70;99.90
43627;DHT22;29217;52.586;13.442;2023-06-10T20:07:26;22.70;99.90
43627;DHT22;29217;52.586;13.442;2023-06-10T20:09:52;22.60;99.90
43627;DHT22;29217;52.586;13.442;2023-06-10T20:12:18;22.50;99.90
43627;DHT22;29217;52.586;13.442;2023-06-10T20:14:43;22.40;99.90
43627;DHT22;29217;52.586;13.442;2023-06-10T20:17:09;22.30;99.90
43627;DHT22;29217;52.586;13.442;2023-06-10T20:19:34;22.20;99.90
43627;DHT22;29217;52.586;13.442;2023-06-10T20:22:00;22.20;99.90
43627;DHT22;29217;52.586;13.442;2023-06-10T20:24:30;22.10;99.90
43627;DHT22;29217;52.586;13.442;2023-06-10T20:26:55;22.00;99.90
43627;DHT22;29217;52.586;13.442;2023-06-10T20:29:21;21.90;99.90
43627;DHT22;29217;52.586;13.442;2023-06-10T20:31:47;21.80;99.90
43627;DHT22;29217;52.586;13.442;2023-06-10T20:34:12;21.80;99.90
43627;DHT22;29217;52.586;13.442;2023-06-10T20:36:38;21.70;99.90
43627;DHT22;29217;52.586;13.442;2023-06-10T20:39:03;21.70;99.90
43627;DHT22;29217;52.586;13.442;2023-06-10T20:41:29;21.60;99.90
43627;DHT22;29217;52.586;13.442;2023-06-10T20:43:55;21.50;99.90
43627;DHT22;29217;52.586;13.442;2023-06-10T20:46:22;21.50;99.90
43627;DHT22;29217;52.586;13.442;2023-06-10T20:48:48;21.30;99.90
43627;DHT22;29217;52.586;13.442;2023-06-10T20:51:14;21.30;99.90
43627;DHT22;29217;52.586;13.442;2023-06-10T20:53:39;21.30;99.90
43627;DHT22;29217;52.586;13.442;2023-06-10T20:56:05;21.20;99.90
43627;DHT22;29217;52.586;13.442;2023-06-10T20:58:31;21.20;99.90
43627;DHT22;29217;52.586;13.442;2023-06-10T21:00:56;21.10;99.90
43627;DHT22;29217;52.586;13.442;2023-06-10T21:03:22;21.10;99.90
43627;DHT22;29217;52.586;13.442;2023-06-10T21:05:47;21.00;99.90
43627;DHT22;29217;52.586;13.442;2023-06-10T21:08:13;20.90;99.90
43627;DHT22;29217;52.586;13.442;2023-06-10T21:10:39;20.90;99.90
43627;DHT22;29217;52.586;13.442;2023-06-10T21:13:05;20.80;99.90
43627;DHT22;29217;52.586;13.442;2023-06-10T21:15:31;20.70;99.90
43627;DHT22;29217;52.586;13.442;2023-06-10T21:17:56;20.70;99.90
43627;DHT22;29217;52.586;13.442;2023-06-10T21:20:22;20.60;99.90
43627;DHT22;29217;52.586;13.442;2023-06-10T21:22:47;20.50;99.90
43627;DHT22;29217;52.586;13.442;2023-06-10T21:25:13;20.40;99.90
43627;DHT22;29217;52.586;13.442;2023-06-10T21:27:39;20.40;99.90
43627;DHT22;29217;52.586;13.442;2023-06-10T21:30:05;20.30;99.90
43627;DHT22;29217;52.586;13.442;2023-06-10T21:32:31;20.30;99.90
43627;DHT22;29217;52.586;13.442;2023-06-10T21:34:57;20.30;99.90
43627;DHT22;29217;52.586;13.442;2023-06-10T21:37:22;20.20;99.90
43627;DHT22;29217;52.586;13.442;2023-06-10T21:39:48;20.20;99.90
43627;DHT22;29217;52.586;13.442;2023-06-10T21:42:13;20.10;99.90
43627;DHT22;29217;52.586;13.442;2023-06-10T21:44:39;20.00;99.90
43627;DHT22;29217;52.586;13.442;2023-06-10T21:47:05;19.90;99.90
43627;DHT22;29217;52.586;13.442;2023-06-10T21:49:31;19.90;99.90
43627;DHT22;29217;52.586;13.442;2023-06-10T21:51:57;19.90;99.90
43627;DHT22;29217;52.586;13.442;2023-06-10T21:54:22;19.80;99.90
43627;DHT22;29217;52.586;13.442;2023-06-10T21:56:48;19.70;99.90
43627;DHT22;29217;52.586;13.442;2023-06-10T21:59:14;19.70;99.90
43627;DHT22;29217;52.586;13.442;2023-06-10T22:01:39;19.60;99.90
43627;DHT22;29217;52.586;13.442;2023-06-10T22:04:05;19.50;99.90
43627;DHT22;29217;52.586;13.442;2023-06-10T22:06:31;19.40;99.90
43627;DHT22;29217;52.586;13.442;2023-06-10T22:08:58;19.30;99.90
43627;DHT22;29217;52.586;13.442;2023-06-10T22:11:24;19.20;99.90
43627;DHT22;29217;52.586;13.442;2023-06-10T22:13:51;19.20;99.90
43627;DHT22;29217;52.586;13.442;2023-06-10T22:16:17;19.20;99.90
43627;DHT22;29217;52.586;13.442;2023-06-10T22:18:42;19.10;99.90
43627;DHT22;29217;52.586;13.442;2023-06-10T22:21:08;19.10;99.90
43627;DHT22;29217;52.586;13.442;2023-06-10T22:23:34;19.00;99.90
43627;DHT22;29217;52.586;13.442;2023-06-10T22:26:00;18.90;99.90
43627;DHT22;29217;52.586;13.442;2023-06-10T22:28:25;18.80;99.90
43627;DHT22;29217;52.586;13.442;2023-06-10T22:30:51;18.70;99.90
43627;DHT22;29217;52.586;13.442;2023-06-10T22:33:17;18.60;99.90
43627;DHT22;29217;52.586;13.442;2023-06-10T22:35:42;18.50;99.90
43627;DHT22;29217;52.586;13.442;2023-06-10T22:38:08;18.50;99.90
43627;DHT22;29217;52.586;13.442;2023-06-10T22:40:34;18.40;99.90
43627;DHT22;29217;52.586;13.442;2023-06-10T22:42:59;18.40;99.90
43627;DHT22;29217;52.586;13.442;2023-06-10T22:45:25;18.30;99.90
43627;DHT22;29217;52.586;13.442;2023-06-10T22:47:51;18.20;99.90
43627;DHT22;29217;52.586;13.442;2023-06-10T22:50:16;18.10;99.90
43627;DHT22;29217;52.586;13.442;2023-06-10T22:52:42;18.10;99.90
43627;DHT22;29217;52.586;13.442;2023-06-10T22:55:08;18.10;99.90
43627;DHT22;29217;52.586;13.442;2023-06-10T22:57:35;18.00;99.90
43627;DHT22;29217;52.586;13.442;2023-06-10T23:00:01;18.00;99.90
43627;DHT22;29217;52.586;13.442;2023-06-10T23:02:26;17.90;99.90
43627;DHT22;29217;52.586;13.442;2023-06-10T23:04:52;17.90;99.90
43627;DHT22;29217;52.586;13.442;2023-06-10T23:07:18;17.90;99.90
43627;DHT22;29217;52.586;13.442;2023-06-10T23:09:46;17.80;99.90
43627;DHT22;29217;52.586;13.442;2023-06-10T23:12:12;17.80;99.90
43627;DHT22;29217;52.586;13.442;2023-06-10T23:14:37;17.70;99.90
43627;DHT22;29217;52.586;13.442;2023-06-10T23:17:03;17.70;99.90
43627;DHT22;29217;52.586;13.442;2023-06-10T23:19:29;17.60;99.90
43627;DHT22;29217;52.586;13.442;2023-06-10T23:21:55;17.50;99.90
43627;DHT22;29217;52.586;13.442;2023-06-10T23:24:23;17.50;99.90
43627;DHT22;29217;52.586;13.442;2023-06-10T23:26:59;17.50;99.90
43627;DHT22;29217;52.586;13.442;2023-06-10T23:29:26;17.50;99.90
43627;DHT22;29217;52.586;13.442;2023-06-10T23:31:52;17.40;99.90
43627;DHT22;29217;52.586;13.442;2023-06-10T23:34:18;17.30;99.90
43627;DHT22;29217;52.586;13.442;2023-06-10T23:36:44;17.30;99.90
43627;DHT22;29217;52.586;13.442;2023-06-10T23:39:12;17.30;99.90
43627;DHT22;29217;52.586;13.442;2023-06-10T23:41:39;17.30;99.90
43627;DHT22;29217;52.586;13.442;2023-06-10T23:44:05;17.20;99.90
43627;DHT22;29217;52.586;13.442;2023-06-10T23:46:34;17.20;99.90
43627;DHT22;29217;52.586;13.442;2023-06-10T23:48:59;17.20;99.90
43627;DHT22;29217;52.586;13.442;2023-06-10T23:51:26;17.20;99.90
43627;DHT22;29217;52.586;13.442;2023-06-10T23:53:51;17.10;99.90
43627;DHT22;29217;52.586;13.442;2023-06-10T23:56:18;17.10;99.90
43627;DHT22;29217;52.586;13.442;2023-06-10T23:58:44;17.00;99.90
